Flight Track Log - Related Links

Times and Time Zones

All times are in EDT time to prevent confusion due to time zone crossing. See the UAL4202 flight status page for this flight to view local times or setup timezone preferences in your user account.

Time Position Orientation Groundspeed Altitude Reporting Facility
EDT Latitude Longitude Course Direction KTS MPH feet Rate Location/Type
Mon 05:09:30 PM 40.6500 -74.1833 276° West 169 194 1,800  Level New York TRACON
Mon 05:10:29 PM 40.6000 -74.2333 217° Southwest 244 281 3,400 2,053 Climbing New York TRACON
Mon 05:11:24 PM 40.6333 -74.3167 298° West 253 291 5,700 2,750 Climbing New York TRACON
Mon 05:12:00 PM 40.7446 -74.6404 277° West  Level FlightAware Approximate
Mon 05:12:29 PM 40.6500 -74.4167 282° West 251 289 8,900  Level New York TRACON
Mon 05:13:00 PM 40.7549 -74.7636 276° West  Level FlightAware Approximate
Mon 05:13:29 PM 40.7000 -74.4833 315° West 275 316 10,500  Level New York TRACON
Mon 05:14:00 PM 40.7644 -74.8869 276° West  Level FlightAware Approximate
Mon 05:14:24 PM 40.7667 -74.5167 339° North 306 352 11,400  Level New York TRACON
Mon 05:16:04 PM 40.8025 -74.6994 285° West 295 339 13,100 1,013 Climbing New York Center
Mon 05:17:04 PM 40.8050 -74.8119 272° West 316 364 14,100 1,091 Climbing New York Center
Mon 05:18:05 PM 40.8044 -74.9489 270° West 343 395 15,300 1,140 Climbing New York Center
Mon 05:19:05 PM 40.8039 -75.0750 270° West 349 402 16,400 1,109 Climbing New York Center
Mon 05:20:04 PM 40.7931 -75.2033 264° West 344 396 17,500 1,059 Climbing New York Center
Mon 05:21:04 PM 40.7764 -75.3117 259° West 349 402 18,500 1,041 Climbing New York Center
Mon 05:22:05 PM 40.7464 -75.4386 253° West 349 402 19,600 1,082 Climbing New York Center
Mon 05:23:06 PM 40.7044 -75.5533 244° Southwest 354 407 20,700 1,140 Climbing New York Center
Mon 05:24:06 PM 40.6600 -75.6678 243° Southwest 354 407 21,900 1,169 Climbing New York Center
Mon 05:25:04 PM 40.6175 -75.7853 245° Southwest 359 413 23,000 1,119 Climbing New York Center
Mon 05:26:04 PM 40.5753 -75.8997 244° Southwest 359 413 24,100 1,190 Climbing New York Center
Mon 05:27:05 PM 40.5242 -76.0186 241° Southwest 359 413 25,400 1,180 Climbing New York Center
Mon 05:28:06 PM 40.4792 -76.1381 244° Southwest 359 413 26,500 1,140 Climbing New York Center
Mon 05:29:06 PM 40.4342 -76.2547 243° Southwest 359 413 27,700 1,169 Climbing New York Center
Mon 05:30:04 PM 40.3911 -76.3711 244° Southwest 359 413 28,800 1,119 Climbing New York Center
Mon 05:31:04 PM 40.3464 -76.4819 242° Southwest 354 407 29,900 1,140 Climbing New York Center
Mon 05:32:05 PM 40.3033 -76.5953 244° Southwest 354 407 31,100 1,140 Climbing New York Center
Mon 05:33:05 PM 40.2558 -76.7083 241° Southwest 354 407 32,200 1,140 Climbing New York Center
Mon 05:34:06 PM 40.2108 -76.8158 241° Southwest 354 407 33,400 1,131 Climbing New York Center
Mon 05:35:07 PM 40.1653 -76.9317 243° Southwest 354 407 34,500 1,169 Climbing New York Center
Mon 05:36:04 PM 40.1211 -77.0553 245° Southwest 354 407 35,700 756 Climbing New York Center
Mon 05:37:06 PM 40.1025 -77.1703 258° West 326 375 36,000 92 Climbing New York Center
Mon 05:39:20 PM 40.1014 -77.4589 270° West 341 392 36,000  Level Cleveland Center
Mon 05:40:20 PM 40.1008 -77.5919 270° West 364 419 36,000  Level Cleveland Center
Mon 05:41:21 PM 40.0981 -77.7278 269° West 371 427 36,000  Level Cleveland Center
Mon 05:42:20 PM 40.0972 -77.8608 270° West 376 433 36,000  Level Cleveland Center
Mon 05:43:21 PM 40.0917 -77.9778 266° West 369 425 36,000  Level Cleveland Center
Mon 05:44:20 PM 40.0883 -78.1081 268° West 369 425 36,000  Level Cleveland Center
Mon 05:45:20 PM 40.0869 -78.2411 269° West 369 425 36,000  Level Cleveland Center
Mon 05:46:21 PM 40.0853 -78.3714 269° West 369 425 36,000  Level Cleveland Center
Mon 05:47:20 PM 40.0817 -78.5072 268° West 369 425 36,000  Level Cleveland Center
Mon 05:48:20 PM 40.0778 -78.6403 268° West 369 425 36,000  Level Cleveland Center
Mon 05:49:20 PM 40.0778 -78.7733 270° West 369 425 36,000  Level Cleveland Center
Mon 05:50:21 PM 40.0736 -78.9064 268° West 369 425 36,000  Level Cleveland Center
Mon 05:51:20 PM 40.0714 -79.0367 269° West 369 425 36,000  Level Cleveland Center
Mon 05:52:21 PM 40.0689 -79.1697 269° West 369 425 36,000  Level Cleveland Center
Mon 05:53:21 PM 40.0642 -79.2972 267° West 369 425 36,000  Level Cleveland Center
Mon 05:54:20 PM 40.0636 -79.4411 270° West 364 419 36,000  Level Cleveland Center
Mon 05:55:20 PM 40.0606 -79.5631 268° West 359 413 36,000  Level Cleveland Center
Mon 05:56:20 PM 40.0575 -79.6908 268° West 354 407 36,000  Level Cleveland Center
Mon 05:57:20 PM 40.0542 -79.8183 268° West 354 407 36,000  Level Cleveland Center
Mon 05:58:21 PM 40.0508 -79.9458 268° West 354 407 36,000  Level Cleveland Center
Mon 05:59:20 PM 40.0472 -80.0733 268° West 354 407 36,000  Level Cleveland Center
Mon 06:00:20 PM 40.0436 -80.1844 268° West 354 407 36,000  Level Cleveland Center
Mon 06:01:20 PM 40.0378 -80.3147 267° West 354 407 36,000  Level Cleveland Center
Mon 06:02:20 PM 40.0336 -80.4422 268° West 354 407 36,000  Level Cleveland Center
Mon 06:03:20 PM 40.0297 -80.5694 268° West 354 407 36,000  Level Cleveland Center
Mon 06:04:21 PM 40.0233 -80.6997 266° West 354 407 36,000  Level Cleveland Center
Mon 06:05:21 PM 40.0189 -80.8244 267° West 349 402 36,000  Level Cleveland Center
Mon 06:06:21 PM 40.0186 -80.9517 270° West 349 402 36,000  Level Cleveland Center
Mon 06:08:27 PM 40.0103 -81.2078 268° West 340 391 36,000  Level Indianapolis Center
Mon 06:09:29 PM 40.0083 -81.3533 269° West 341 392 36,000  Level Indianapolis Center
Mon 06:10:31 PM 40.0056 -81.4778 268° West 341 392 36,000  Level Indianapolis Center
Mon 06:11:33 PM 40.0039 -81.6028 269° West 343 395 36,000  Level Indianapolis Center
Mon 06:12:35 PM 40.0006 -81.7275 268° West 340 391 36,000  Level Indianapolis Center
Mon 06:13:37 PM 39.9994 -81.8481 269° West 341 392 36,000  Level Indianapolis Center
Mon 06:14:39 PM 39.9958 -81.9733 268° West 342 394 36,000  Level Indianapolis Center
Mon 06:15:42 PM 39.9925 -82.1178 268° West 340 391 36,000  Level Indianapolis Center
Mon 06:16:43 PM 39.9892 -82.2408 268° West 337 388 36,000 -49 Level Indianapolis Center
Mon 06:17:45 PM 39.9864 -82.3639 268° West 338 389 35,900  Descending Indianapolis Center
Mon 06:18:47 PM 39.9825 -82.4875 268° West 338 389 36,000 48 Climbing Indianapolis Center
Mon 06:19:49 PM 39.9794 -82.6097 268° West 336 387 36,000  Level Indianapolis Center
Mon 06:20:52 PM 39.9758 -82.7339 268° West 339 390 36,000  Level Indianapolis Center
Mon 06:21:53 PM 39.9719 -82.8578 268° West 340 391 36,000  Level Indianapolis Center
Mon 06:22:55 PM 39.9675 -83.0031 268° West 342 394 36,000  Level Indianapolis Center
Mon 06:23:57 PM 39.9644 -83.1269 268° West 340 391 36,000  Level Indianapolis Center
Mon 06:24:59 PM 39.9617 -83.2503 268° West 340 391 36,000  Level Indianapolis Center
Mon 06:26:01 PM 39.9569 -83.3742 267° West 343 395 36,000  Level Indianapolis Center
Mon 06:27:03 PM 39.9528 -83.4958 267° West 339 390 36,000  Level Indianapolis Center
Mon 06:28:05 PM 39.9475 -83.6389 267° West 341 392 36,000  Level Indianapolis Center
Mon 06:29:07 PM 39.9433 -83.7617 268° West 337 388 36,000  Level Indianapolis Center
Mon 06:30:09 PM 39.9383 -83.8836 267° West 338 389 36,000  Level Indianapolis Center
Mon 06:31:11 PM 39.9333 -84.0069 267° West 339 390 36,000  Level Indianapolis Center
Mon 06:32:13 PM 39.9283 -84.1303 267° West 340 391 36,000  Level Indianapolis Center
Mon 06:33:15 PM 39.9231 -84.2544 267° West 341 392 36,000  Level Indianapolis Center
Mon 06:34:17 PM 39.9175 -84.3772 267° West 338 389 36,000  Level Indianapolis Center
Mon 06:35:19 PM 39.9111 -84.5219 267° West 341 392 36,000  Level Indianapolis Center
Mon 06:36:21 PM 39.9064 -84.6450 267° West 338 389 36,000  Level Indianapolis Center
Mon 06:37:23 PM 39.8994 -84.7669 266° West 336 387 36,000  Level Indianapolis Center
Mon 06:38:25 PM 39.8942 -84.8892 267° West 336 387 36,000  Level Indianapolis Center
Mon 06:39:27 PM 39.8886 -85.0061 266° West 329 379 36,000  Level Indianapolis Center
Mon 06:40:29 PM 39.8822 -85.1233 266° West 323 372 36,000  Level Indianapolis Center
Mon 06:41:32 PM 39.8750 -85.2594 266° West 320 368 36,000  Level Indianapolis Center
Mon 06:42:34 PM 39.8706 -85.3764 267° West 319 367 36,000  Level Indianapolis Center
Mon 06:43:36 PM 39.8636 -85.4919 266° West 317 365 36,000  Level Indianapolis Center
Mon 06:44:38 PM 39.8578 -85.6078 266° West 319 367 36,000  Level Indianapolis Center
Mon 06:45:40 PM 39.8511 -85.7219 266° West 315 362 36,000  Level Indianapolis Center
Mon 06:46:42 PM 39.8447 -85.8378 266° West 318 366 36,000  Level Indianapolis Center
Mon 06:47:44 PM 39.8392 -85.9511 266° West 313 360 36,000  Level Indianapolis Center
Mon 06:48:46 PM 39.8311 -86.0872 266° West 322 371 36,000  Level Indianapolis Center
Mon 06:49:47 PM 39.8247 -86.2039 266° West 331 381 36,000  Level Indianapolis Center
Mon 06:50:49 PM 39.8167 -86.3247 265° West 334 384 36,000  Level Indianapolis Center
Mon 06:51:51 PM 39.7964 -86.4436 258° West 342 394 36,000  Level Indianapolis Center
Mon 06:52:53 PM 39.7628 -86.5789 252° West 339 390 36,000  Level Indianapolis Center
Mon 06:53:55 PM 39.7350 -86.6925 252° West 329 379 36,000  Level Indianapolis Center
Mon 06:54:57 PM 39.7069 -86.8058 252° West 327 376 36,000  Level Indianapolis Center
Mon 06:55:59 PM 39.6772 -86.9214 252° West 335 386 36,000  Level Indianapolis Center
Mon 06:57:01 PM 39.6486 -87.0394 253° West 339 390 36,000 -242 Level Indianapolis Center
Mon 06:58:03 PM 39.6183 -87.1564 251° West 341 392 35,500 -919 Descending Indianapolis Center
Mon 06:59:05 PM 39.5889 -87.2722 252° West 337 388 34,100 -1,500 Descending Indianapolis Center
Mon 07:00:07 PM 39.5553 -87.4072 252° West 336 387 32,400 -1,548 Descending Indianapolis Center
Mon 07:01:09 PM 39.5253 -87.5244 252° West 341 392 30,900 -1,452 Descending Indianapolis Center
Mon 07:02:11 PM 39.4956 -87.6453 252° West 348 400 29,400 -1,366 Descending Indianapolis Center
Mon 07:03:12 PM 39.4622 -87.7697 251° West 361 415 28,100 -683 Descending Indianapolis Center
Mon 07:04:14 PM 39.4300 -87.8986 252° West 372 428 28,000 -52 Descending Indianapolis Center
Mon 07:05:07 PM 39.4031 -88.0031 252° West 366 421 28,000 -158 Level Kansas City Center
Mon 07:06:08 PM 39.3664 -88.1406 251° West 383 441 27,700 -629 Descending Kansas City Center
Mon 07:07:11 PM 39.3308 -88.2758 251° West 395 455 26,700 -1,087 Descending Kansas City Center
Mon 07:08:15 PM 39.2872 -88.4392 251° West 400 460 25,400 -1,306 Descending Kansas City Center
Mon 07:09:15 PM 39.2506 -88.5764 251° West 403 464 24,000 -1,279 Descending Kansas City Center
Mon 07:10:17 PM 39.2203 -88.6956 252° West 397 457 22,800 -1,415 Descending Kansas City Center
Mon 07:11:18 PM 39.1775 -88.8489 250° West 384 442 21,100 -1,500 Descending Kansas City Center
Mon 07:12:21 PM 39.1444 -88.9769 252° West 376 433 19,700 -1,381 Descending Kansas City Center
Mon 07:13:24 PM 39.1064 -89.1092 250° West 366 421 18,200 -1,487 Descending Kansas City Center
Mon 07:14:18 PM 39.0819 -89.1636 240° Southwest 353 406 16,800 -1,541 Descending FAA TRACON SMA TRACON (SMA)
Mon 07:14:38 PM 39.0728 -89.2006 252° West 353 406 16,300 -1,500 Descending FAA TRACON SMA TRACON (SMA)
Mon 07:14:58 PM 39.0611 -89.2464 252° West 351 404 15,800 -1,350 Descending FAA TRACON SMA TRACON (SMA)
Mon 07:15:18 PM 39.0536 -89.2831 255° West 346 398 15,400 -1,200 Descending FAA TRACON SMA TRACON (SMA)
Mon 07:15:38 PM 39.0444 -89.3189 252° West 343 395 15,000 -750 Descending FAA TRACON SMA TRACON (SMA)
Mon 07:15:58 PM 39.0350 -89.3639 255° West 340 391 14,900 -154 Descending FAA TRACON SMA TRACON (SMA)
Mon 07:16:17 PM 39.0269 -89.3997 254° West 338 389 14,900  Level FAA TRACON SMA TRACON (SMA)
Mon 07:16:37 PM 39.0178 -89.4344 251° West 336 387 14,900  Level FAA TRACON SMA TRACON (SMA)
Mon 07:16:58 PM 39.0081 -89.4789 254° West 336 387 14,900  Level FAA TRACON SMA TRACON (SMA)
Mon 07:17:17 PM 38.9994 -89.5150 253° West 340 391 14,900  Level FAA TRACON SMA TRACON (SMA)
Mon 07:17:37 PM 38.9892 -89.5508 250° West 345 397 14,900  Level FAA TRACON SMA TRACON (SMA)
Mon 07:17:58 PM 38.9747 -89.5944 247° West 347 399 14,900  Level FAA TRACON SMA TRACON (SMA)
Mon 07:18:18 PM 38.9636 -89.6303 248° West 349 402 14,900 -462 Level FAA TRACON SMA TRACON (SMA)
Mon 07:18:37 PM 38.9528 -89.6656 248° West 347 399 14,600 -1,231 Descending FAA TRACON SMA TRACON (SMA)
Mon 07:18:57 PM 38.9389 -89.7083 247° West 339 390 14,100 -1,463 Descending FAA TRACON SMA TRACON (SMA)
Mon 07:19:18 PM 38.9283 -89.7422 248° West 333 383 13,600 -1,500 Descending FAA TRACON SMA TRACON (SMA)
Mon 07:19:37 PM 38.9172 -89.7750 246° West 328 377 13,100 -1,385 Descending FAA TRACON SMA TRACON (SMA)
Mon 07:19:57 PM 38.9072 -89.8081 249° West 323 372 12,700 -1,500 Descending FAA TRACON SMA TRACON (SMA)
Mon 07:20:17 PM 38.8939 -89.8475 247° West 315 362 12,100 -1,650 Descending FAA TRACON SMA TRACON (SMA)
Mon 07:20:37 PM 38.8844 -89.8781 248° West 302 348 11,600 -1,650 Descending FAA TRACON SMA TRACON (SMA)
Mon 07:20:57 PM 38.8731 -89.9142 248° West 287 330 11,000 -1,650 Descending FAA TRACON SMA TRACON (SMA)
Mon 07:21:17 PM 38.8639 -89.9425 247° West 279 321 10,500 -1,350 Descending FAA TRACON SMA TRACON (SMA)
Mon 07:21:37 PM 38.8553 -89.9694 248° West 270 311 10,100 -1,463 Descending FAA TRACON SMA TRACON (SMA)
Mon 07:21:58 PM 38.8442 -90.0031 247° West 265 305 9,500 -1,463 Descending FAA TRACON SMA TRACON (SMA)
Mon 07:22:18 PM 38.8353 -90.0297 247° West 264 304 9,100 -923 Descending FAA TRACON SMA TRACON (SMA)
Mon 07:22:37 PM 38.8269 -90.0561 248° West 263 303 8,900 -308 Descending FAA TRACON SMA TRACON (SMA)
Mon 07:22:57 PM 38.8183 -90.0831 248° West 261 300 8,900 -439 Level FAA TRACON SMA TRACON (SMA)
Mon 07:23:18 PM 38.8078 -90.1167 248° West 264 304 8,600 -878 Descending FAA TRACON SMA TRACON (SMA)
Mon 07:23:38 PM 38.7997 -90.1442 249° West 267 307 8,300 -923 Descending FAA TRACON SMA TRACON (SMA)
Mon 07:23:57 PM 38.8053 -90.1789 282° West 277 319 8,000 -615 Descending FAA TRACON SMA TRACON (SMA)
Mon 07:24:17 PM 38.8169 -90.2042 301° West 269 310 7,900 -450 Descending FAA TRACON SMA TRACON (SMA)
Mon 07:24:37 PM 38.8278 -90.2286 300° West 261 300 7,700 -1,200 Descending FAA TRACON SMA TRACON (SMA)
Mon 07:24:57 PM 38.8414 -90.2594 300° West 257 296 7,100 -1,756 Descending FAA TRACON SMA TRACON (SMA)
Mon 07:25:18 PM 38.8517 -90.2842 298° West 256 295 6,500 -1,756 Descending FAA TRACON SMA TRACON (SMA)
Mon 07:25:38 PM 38.8617 -90.3092 297° West 257 296 5,900 -2,154 Descending FAA TRACON SMA TRACON (SMA)
Mon 07:25:57 PM 38.8742 -90.3411 297° West 258 297 5,100 -2,000 Descending FAA TRACON SMA TRACON (SMA)
Mon 07:26:17 PM 38.8842 -90.3667 297° West 260 299 4,600 -1,902 Descending FAA TRACON SMA TRACON (SMA)
Mon 07:26:38 PM 38.8958 -90.3992 295° West 262 302 3,800 -1,800 Descending FAA TRACON SMA TRACON (SMA)
Mon 07:26:57 PM 38.8972 -90.4272 274° West 259 298 3,400 -1,077 Descending FAA TRACON SMA TRACON (SMA)
Mon 07:27:17 PM 38.8953 -90.4531 264° West 251 289 3,100 -1,024 Descending FAA TRACON SMA TRACON (SMA)
Mon 07:27:38 PM 38.8781 -90.4728 222° Southwest 229 264 2,700 -1,024 Descending FAA TRACON SMA TRACON (SMA)
Mon 07:27:58 PM 38.8631 -90.4847 212° Southwest 209 241 2,400 -450 Descending FAA TRACON SMA TRACON (SMA)
Mon 07:28:18 PM 38.8489 -90.4950 209° Southwest 195 224 2,400 -150 Level FAA TRACON SMA TRACON (SMA)
Mon 07:28:38 PM 38.8317 -90.4914 171° South 179 206 2,300  Descending FAA TRACON SMA TRACON (SMA)
Mon 07:28:57 PM 38.8244 -90.4753 120° Southeast 177 204 2,400 154 Climbing FAA TRACON SMA TRACON (SMA)
Mon 07:29:17 PM 38.8139 -90.4617 135° Southeast 178 205 2,400  Level FAA TRACON SMA TRACON (SMA)
Mon 07:29:38 PM 38.8053 -90.4386 116° Southeast 184 212 2,400 -146 Level FAA TRACON SMA TRACON (SMA)
Mon 07:29:58 PM 38.7981 -90.4228 120° Southeast 174 200 2,300 -450 Descending FAA TRACON SMA TRACON (SMA)
Mon 07:30:18 PM 38.7903 -90.4075 123° Southeast 165 190 2,100 -769 Descending FAA TRACON SMA TRACON (SMA)
Mon 07:30:37 PM 38.7831 -90.3925 122° Southeast 161 185 1,800 -800 Descending FAA TRACON SMA TRACON (SMA)
Mon 07:31:18 PM 38.7689 -90.3644 123° Southeast 130 150 1,300 -700 Descending FAA TRACON SMA TRACON (SMA)
Mon 07:31:37 PM 38.7628 -90.3525 123° Southeast 128 147 1,100 -769 Descending FAA TRACON SMA TRACON (SMA)
Mon 07:31:57 PM 38.7556 -90.3375 122° Southeast 130 150 800 -732 Descending FAA TRACON SMA TRACON (SMA)
Mon 07:32:18 PM 38.7497 -90.3253 121° Southeast 131 151 600 -571 Descending FAA TRACON SMA TRACON (SMA)

Login

Don't have an account? Register now (free) for customized features, flight alerts, and more!